Maldives Meteorological Service

SYNOP

Station Code SYNOP
43555
AAXX 18214 43555 41465 70903 10263 20246 30094 40096 72582 82232 333 59002 82818 87077 =
43533
AAXX 18214 43533 42462 70905 10286 20252 30096 40098 82248 333 59002 82818 87277=
43577
AAXX 18214 43577 42462 51104 10282 20248 30096 40098 82232 333 59003 82818 85077=
43588
AAXX 18214 43588 42462 61105 10280 20252 30096 40097 82202 333 59002 82818 86077=
43599
AAXX 18214 43599 41460 51106 10268 20260 30097 40099 70282 82101 333 59003 82818 85077=
Last Updated : 2019-11-19 02:00:41